createdAt,value
2018-02-27T00:01:27.752Z,5.70
2018-02-27T00:03:55.919Z,6.80
2018-02-27T00:06:24.274Z,6.70
2018-02-27T00:08:51.806Z,7.70
2018-02-27T00:11:19.422Z,6.90
2018-02-27T00:13:46.989Z,6.00
2018-02-27T00:16:14.562Z,5.93
2018-02-27T00:18:42.952Z,5.90
2018-02-27T00:21:11.584Z,5.97
2018-02-27T00:23:39.313Z,5.47
2018-02-27T00:26:07.004Z,6.30
2018-02-27T00:28:34.576Z,6.40
2018-02-27T00:31:02.085Z,5.30
2018-02-27T00:33:29.641Z,5.10
2018-02-27T00:35:57.178Z,5.50
2018-02-27T00:38:24.810Z,4.63
2018-02-27T00:40:53.516Z,5.37
2018-02-27T00:43:22.164Z,5.40
2018-02-27T00:45:50.432Z,5.37
2018-02-27T00:48:18.683Z,5.10
2018-02-27T00:50:46.259Z,5.20
2018-02-27T00:53:15.044Z,4.77
2018-02-27T00:55:42.791Z,5.60
2018-02-27T00:58:10.743Z,4.47
2018-02-27T01:00:38.407Z,4.70
2018-02-27T01:03:06.492Z,5.00
2018-02-27T01:05:34.843Z,5.60
2018-02-27T01:08:02.367Z,5.37
2018-02-27T01:10:30.767Z,5.47
2018-02-27T01:12:58.342Z,4.97
2018-02-27T01:15:26.316Z,4.93
2018-02-27T01:17:53.985Z,5.30
2018-02-27T01:20:22.181Z,5.07
2018-02-27T01:22:50.503Z,4.90
2018-02-27T01:25:19.000Z,5.67
2018-02-27T01:27:46.855Z,5.07
2018-02-27T01:30:14.932Z,4.63
2018-02-27T01:32:42.683Z,4.83
2018-02-27T01:35:10.992Z,6.27
2018-02-27T01:37:39.515Z,6.43
2018-02-27T01:40:07.354Z,5.40
2018-02-27T01:42:34.983Z,5.00
2018-02-27T01:45:02.745Z,5.40
2018-02-27T01:47:30.618Z,5.80
2018-02-27T01:49:59.176Z,4.87
2018-02-27T01:52:28.581Z,4.90
2018-02-27T01:54:57.138Z,4.90
2018-02-27T01:57:25.375Z,5.83
2018-02-27T01:59:53.450Z,5.20
2018-02-27T02:02:21.433Z,6.00
2018-02-27T02:04:49.265Z,6.37
2018-02-27T02:07:16.938Z,5.60
2018-02-27T02:09:44.656Z,4.77
2018-02-27T02:12:12.428Z,5.30
2018-02-27T02:14:41.082Z,4.70
2018-02-27T02:17:10.909Z,5.90
2018-02-27T02:19:39.774Z,5.57
2018-02-27T02:22:07.800Z,6.00
2018-02-27T02:24:35.502Z,5.27
2018-02-27T02:27:03.373Z,4.60
2018-02-27T02:29:31.038Z,4.60
2018-02-27T02:31:59.557Z,4.97
2018-02-27T02:34:27.974Z,4.80
2018-02-27T02:36:56.916Z,4.80
2018-02-27T02:39:25.175Z,5.30
2018-02-27T02:41:53.018Z,5.87
2018-02-27T02:44:21.615Z,4.63
2018-02-27T02:46:49.436Z,5.10
2018-02-27T02:49:17.518Z,4.60
2018-02-27T02:51:45.382Z,5.23
2018-02-27T02:54:14.308Z,4.80
2018-02-27T02:56:42.483Z,4.47
2018-02-27T02:59:10.212Z,5.60
2018-02-27T03:01:38.313Z,5.10
2018-02-27T03:04:06.352Z,4.77
2018-02-27T03:06:34.425Z,4.60
2018-02-27T03:09:02.323Z,4.03
2018-02-27T03:11:30.208Z,5.23
2018-02-27T03:13:57.911Z,4.80
2018-02-27T03:16:26.422Z,4.83
2018-02-27T03:18:54.107Z,5.60
2018-02-27T03:21:22.159Z,4.83
2018-02-27T03:23:50.091Z,4.70
2018-02-27T03:26:18.038Z,4.90
2018-02-27T03:28:45.850Z,5.37
2018-02-27T03:31:14.761Z,4.80
2018-02-27T03:33:42.791Z,4.80
2018-02-27T03:36:10.569Z,4.57
2018-02-27T03:38:38.361Z,4.07
2018-02-27T03:41:06.417Z,4.97
2018-02-27T03:43:34.091Z,4.53
2018-02-27T03:46:02.195Z,4.70
2018-02-27T03:48:30.002Z,4.30
2018-02-27T03:50:58.446Z,4.47
2018-02-27T03:53:26.542Z,4.80
2018-02-27T03:55:54.751Z,4.40
2018-02-27T03:58:23.606Z,5.00
2018-02-27T04:00:52.349Z,4.30
2018-02-27T04:03:21.195Z,4.10
2018-02-27T04:05:49.689Z,4.10
2018-02-27T04:08:17.408Z,4.67
2018-02-27T04:10:45.163Z,5.20
2018-02-27T04:13:13.426Z,4.93
2018-02-27T04:15:41.206Z,5.10
2018-02-27T04:18:09.028Z,4.60
2018-02-27T04:20:37.466Z,4.63
2018-02-27T04:23:05.137Z,4.80
2018-02-27T04:25:34.388Z,5.37
2018-02-27T04:28:02.079Z,4.70
2018-02-27T04:30:29.891Z,4.93
2018-02-27T04:32:58.224Z,5.20
2018-02-27T04:35:27.363Z,4.60
2018-02-27T04:37:55.118Z,4.93
2018-02-27T04:40:23.678Z,5.00
2018-02-27T04:42:51.751Z,5.50
2018-02-27T04:45:19.815Z,4.30
2018-02-27T04:47:47.886Z,5.33
2018-02-27T04:50:15.543Z,4.60
2018-02-27T04:52:43.377Z,4.83
2018-02-27T04:55:11.026Z,4.60
2018-02-27T04:57:39.223Z,5.20
2018-02-27T05:00:07.125Z,4.97
2018-02-27T05:02:36.087Z,4.30
2018-02-27T05:05:04.120Z,5.07
2018-02-27T05:07:31.787Z,5.47
2018-02-27T05:09:59.849Z,4.50
2018-02-27T05:12:27.848Z,5.20
2018-02-27T05:14:55.528Z,4.97
2018-02-27T05:17:23.289Z,4.77
2018-02-27T05:19:51.633Z,5.10
2018-02-27T05:22:19.459Z,4.33
2018-02-27T05:24:47.142Z,5.00
2018-02-27T05:27:14.719Z,4.57
2018-02-27T05:29:42.384Z,4.93
2018-02-27T05:32:10.373Z,5.27
2018-02-27T05:34:38.117Z,4.73
2018-02-27T05:37:06.605Z,5.23
2018-02-27T05:39:35.320Z,5.30
2018-02-27T05:42:02.987Z,4.80
2018-02-27T05:44:30.656Z,5.00
2018-02-27T05:46:58.432Z,5.30
2018-02-27T05:49:26.027Z,5.40
2018-02-27T05:51:53.653Z,5.60
2018-02-27T05:54:21.389Z,5.23
2018-02-27T05:56:50.176Z,5.37
2018-02-27T05:59:17.869Z,5.60
2018-02-27T06:01:45.492Z,5.27
2018-02-27T06:04:13.363Z,5.83
2018-02-27T06:06:41.942Z,5.87
2018-02-27T06:09:09.709Z,5.63
2018-02-27T06:11:37.382Z,5.07
2018-02-27T06:14:05.847Z,5.57
2018-02-27T06:16:34.966Z,5.40
2018-02-27T06:19:03.025Z,4.80
2018-02-27T06:21:30.878Z,5.40
2018-02-27T06:24:00.182Z,5.67
2018-02-27T06:26:28.161Z,5.83
2018-02-27T06:28:56.095Z,5.57
2018-02-27T06:31:24.708Z,4.70
2018-02-27T06:33:54.635Z,5.03
2018-02-27T06:36:22.564Z,5.93
2018-02-27T06:38:50.392Z,5.70
2018-02-27T06:41:18.031Z,5.83
2018-02-27T06:43:45.666Z,5.63
2018-02-27T06:46:13.867Z,5.27
2018-02-27T06:48:42.533Z,5.40
2018-02-27T06:51:10.576Z,5.67
2018-02-27T06:53:38.710Z,5.80
2018-02-27T06:56:06.750Z,4.93
2018-02-27T06:58:35.402Z,5.10
2018-02-27T07:01:03.157Z,5.17
2018-02-27T07:03:31.916Z,5.33
2018-02-27T07:06:00.342Z,5.40
2018-02-27T07:08:28.130Z,5.17
2018-02-27T07:10:55.735Z,5.77
2018-02-27T07:13:23.923Z,5.77
2018-02-27T07:15:52.033Z,5.73
2018-02-27T07:18:19.968Z,5.50
2018-02-27T07:20:47.839Z,5.30
2018-02-27T07:23:16.449Z,6.33
2018-02-27T07:25:44.346Z,6.27
2018-02-27T07:28:12.459Z,5.30
2018-02-27T07:30:40.672Z,5.40
2018-02-27T07:33:08.973Z,5.73
2018-02-27T07:35:36.750Z,5.90
2018-02-27T07:38:04.573Z,6.17
2018-02-27T07:40:32.228Z,5.20
2018-02-27T07:42:59.975Z,6.03
2018-02-27T07:45:28.095Z,5.80
2018-02-27T07:47:55.974Z,6.10
2018-02-27T07:50:24.992Z,5.60
2018-02-27T07:52:52.870Z,6.10
2018-02-27T07:55:21.375Z,6.10
2018-02-27T07:57:49.080Z,5.33
2018-02-27T08:00:16.680Z,5.70
2018-02-27T08:02:44.411Z,5.33
2018-02-27T08:05:12.064Z,6.30
2018-02-27T08:07:39.635Z,5.03
2018-02-27T08:10:07.289Z,6.07
2018-02-27T08:12:34.879Z,5.83
2018-02-27T08:15:02.554Z,6.10
2018-02-27T08:17:30.460Z,5.83
2018-02-27T08:19:58.541Z,5.63
2018-02-27T08:22:26.336Z,5.53
2018-02-27T08:24:54.188Z,5.03
2018-02-27T08:27:22.592Z,5.37
2018-02-27T08:29:50.292Z,4.93
2018-02-27T08:32:18.156Z,5.90
2018-02-27T08:34:45.879Z,5.67
2018-02-27T08:37:13.520Z,5.27
2018-02-27T08:39:41.370Z,5.70
2018-02-27T08:42:09.216Z,5.13
2018-02-27T08:44:37.658Z,5.43
2018-02-27T08:47:05.374Z,5.63
2018-02-27T08:49:33.689Z,6.13
2018-02-27T08:52:01.394Z,6.20
2018-02-27T08:54:28.938Z,5.73
2018-02-27T08:56:56.561Z,5.03
2018-02-27T08:59:24.338Z,5.83
2018-02-27T09:01:52.153Z,4.83
2018-02-27T09:04:19.641Z,5.30
2018-02-27T09:06:48.255Z,5.87
2018-02-27T09:09:16.562Z,5.40
2018-02-27T09:11:43.996Z,5.83
2018-02-27T09:14:12.239Z,5.60
2018-02-27T09:16:39.729Z,6.17
2018-02-27T09:19:07.200Z,6.00
2018-02-27T09:21:34.807Z,5.00
2018-02-27T09:24:02.266Z,5.63
2018-02-27T09:26:29.826Z,5.63
2018-02-27T09:28:57.363Z,6.30
2018-02-27T09:31:25.841Z,7.60
2018-02-27T09:33:53.808Z,9.40
2018-02-27T09:36:21.307Z,8.30
2018-02-27T09:38:48.859Z,10.40
2018-02-27T09:41:16.351Z,10.20
2018-02-27T09:43:43.973Z,12.73
2018-02-27T09:46:11.491Z,13.17
2018-02-27T09:48:39.335Z,11.40
2018-02-27T09:51:06.905Z,10.53
2018-02-27T09:53:34.364Z,11.80
2018-02-27T09:56:01.888Z,11.77
2018-02-27T09:58:29.715Z,11.87
2018-02-27T10:00:57.191Z,10.80
2018-02-27T10:03:24.690Z,10.73
2018-02-27T10:05:52.157Z,10.10
2018-02-27T10:08:19.713Z,11.30
2018-02-27T10:10:47.138Z,9.10
2018-02-27T10:13:14.629Z,10.07
2018-02-27T10:15:43.343Z,10.27
2018-02-27T10:18:11.100Z,8.60
2018-02-27T10:20:40.170Z,9.20
2018-02-27T10:23:07.641Z,9.90
2018-02-27T10:25:35.268Z,9.50
2018-02-27T10:28:02.838Z,10.07
2018-02-27T10:30:31.131Z,9.40
2018-02-27T10:32:58.615Z,9.40
2018-02-27T10:35:26.377Z,10.07
2018-02-27T10:37:54.312Z,10.93
2018-02-27T10:40:21.964Z,11.40
2018-02-27T10:42:50.184Z,10.50
2018-02-27T10:45:17.677Z,10.40
2018-02-27T10:47:45.971Z,9.33
2018-02-27T10:50:13.779Z,10.33
2018-02-27T10:52:41.521Z,9.20
2018-02-27T10:55:14.337Z,10.20
2018-02-27T10:57:41.867Z,9.33
2018-02-27T11:00:09.350Z,10.07
2018-02-27T11:02:36.793Z,9.60
2018-02-27T11:05:04.282Z,7.93
2018-02-27T11:07:32.084Z,9.70
2018-02-27T11:09:59.584Z,9.77
2018-02-27T11:12:27.082Z,8.60
2018-02-27T11:14:54.508Z,9.47
2018-02-27T11:17:22.331Z,10.50
2018-02-27T11:19:49.928Z,9.50
2018-02-27T11:22:17.411Z,10.17
2018-02-27T11:24:44.930Z,10.57
2018-02-27T11:27:12.484Z,9.20
2018-02-27T11:29:40.164Z,9.40
2018-02-27T11:32:07.618Z,11.70
2018-02-27T11:34:35.699Z,11.47
2018-02-27T11:37:05.612Z,11.60
2018-02-27T11:39:33.192Z,12.90
2018-02-27T11:42:00.909Z,13.87
2018-02-27T11:44:28.480Z,13.57
2018-02-27T11:46:56.070Z,12.57
2018-02-27T11:49:23.546Z,13.37
2018-02-27T11:51:51.185Z,13.23
2018-02-27T11:54:19.549Z,11.80
2018-02-27T11:56:47.167Z,13.60
2018-02-27T11:59:15.074Z,12.70
2018-02-27T12:01:42.738Z,14.30
2018-02-27T12:04:10.259Z,13.53
2018-02-27T12:06:38.031Z,13.03
2018-02-27T12:09:06.262Z,14.53
2018-02-27T12:11:33.986Z,13.67
2018-02-27T12:14:01.769Z,15.07
2018-02-27T12:16:30.700Z,15.20
2018-02-27T12:18:59.463Z,14.30
2018-02-27T12:21:27.200Z,14.60
2018-02-27T12:23:55.074Z,13.80
2018-02-27T12:26:22.632Z,14.30
2018-02-27T12:28:50.134Z,14.73
2018-02-27T12:31:18.334Z,20.97
2018-02-27T12:33:45.811Z,23.43
2018-02-27T12:36:13.271Z,24.60
2018-02-27T12:38:40.823Z,24.23
2018-02-27T12:41:08.756Z,24.20
2018-02-27T12:43:36.957Z,22.40
2018-02-27T12:46:05.134Z,23.77
2018-02-27T12:48:33.553Z,29.23
2018-02-27T12:51:01.269Z,30.20
2018-02-27T12:53:29.293Z,21.80
2018-02-27T12:55:57.518Z,23.87
2018-02-27T12:58:25.135Z,27.00
2018-02-27T13:00:54.494Z,20.43
2018-02-27T13:03:22.151Z,29.47
2018-02-27T13:05:49.638Z,22.23
2018-02-27T13:08:17.602Z,31.40
2018-02-27T13:10:45.162Z,35.60
2018-02-27T13:13:13.023Z,30.10
2018-02-27T13:15:40.504Z,24.50
2018-02-27T13:18:08.144Z,26.73
2018-02-27T13:20:36.111Z,23.70
2018-02-27T13:23:03.645Z,32.20
2018-02-27T13:25:31.942Z,27.10
2018-02-27T13:27:59.608Z,25.90
2018-02-27T13:30:27.093Z,32.17
2018-02-27T13:32:54.593Z,33.07
2018-02-27T13:35:22.201Z,34.97
2018-02-27T13:37:49.954Z,32.90
2018-02-27T13:40:17.547Z,31.67
2018-02-27T13:42:44.996Z,34.17
2018-02-27T13:45:12.449Z,27.27
2018-02-27T13:47:40.005Z,25.13
2018-02-27T13:50:08.308Z,27.17
2018-02-27T13:52:35.725Z,32.53
2018-02-27T13:55:03.180Z,32.77
2018-02-27T13:57:30.961Z,26.40
2018-02-27T13:59:58.511Z,27.93
2018-02-27T14:02:26.036Z,27.57
2018-02-27T14:04:53.584Z,28.77
2018-02-27T14:07:21.115Z,19.83
2018-02-27T14:09:48.786Z,30.03
2018-02-27T14:12:16.704Z,26.60
2018-02-27T14:14:44.275Z,31.33
2018-02-27T14:17:11.809Z,31.67
2018-02-27T14:19:39.325Z,30.13
2018-02-27T14:22:07.154Z,33.97
2018-02-27T14:24:34.658Z,34.20
2018-02-27T14:27:02.885Z,29.20
2018-02-27T14:29:30.403Z,30.83
2018-02-27T14:31:58.414Z,26.43
2018-02-27T14:34:26.016Z,36.93
2018-02-27T14:36:54.341Z,31.17
2018-02-27T14:39:22.028Z,28.80
2018-02-27T14:41:49.957Z,34.80
2018-02-27T14:44:18.325Z,30.27
2018-02-27T14:46:46.550Z,35.53
2018-02-27T14:49:14.066Z,27.70
2018-02-27T14:51:41.750Z,33.00
2018-02-27T14:54:09.378Z,32.90
2018-02-27T14:56:37.159Z,37.10
2018-02-27T14:59:05.521Z,39.57
2018-02-27T15:01:32.973Z,31.23
2018-02-27T15:04:00.520Z,32.77
2018-02-27T15:06:28.092Z,41.80
2018-02-27T15:08:55.849Z,40.37
2018-02-27T15:11:24.338Z,32.17
2018-02-27T15:13:52.610Z,30.13
2018-02-27T15:16:20.085Z,38.20
2018-02-27T15:18:48.360Z,33.63
2018-02-27T15:21:15.935Z,28.73
2018-02-27T15:23:43.537Z,31.63
2018-02-27T15:26:11.184Z,38.97
2018-02-27T15:28:38.649Z,33.97
2018-02-27T15:31:06.154Z,35.53
2018-02-27T15:33:34.443Z,35.83
2018-02-27T15:36:01.973Z,38.20
2018-02-27T15:38:29.448Z,45.47
2018-02-27T15:40:58.071Z,36.30
2018-02-27T15:43:25.640Z,36.73
2018-02-27T15:45:53.104Z,34.90
2018-02-27T15:48:20.671Z,36.70
2018-02-27T15:50:48.230Z,41.00
2018-02-27T15:53:15.753Z,33.63
2018-02-27T15:55:43.628Z,35.70
2018-02-27T15:58:11.172Z,35.50
2018-02-27T16:00:38.669Z,29.90
2018-02-27T16:03:06.412Z,33.13
2018-02-27T16:05:34.047Z,36.93
2018-02-27T16:08:01.570Z,37.90
2018-02-27T16:10:29.989Z,38.13
2018-02-27T16:12:58.760Z,34.87
2018-02-27T16:15:27.058Z,32.23
2018-02-27T16:17:54.553Z,28.00
2018-02-27T16:20:22.071Z,35.47
2018-02-27T16:22:49.954Z,36.00
2018-02-27T16:25:17.566Z,33.30
2018-02-27T16:27:46.146Z,27.90
2018-02-27T16:30:14.342Z,33.43
2018-02-27T16:32:42.037Z,33.47
2018-02-27T16:35:09.651Z,28.00
2018-02-27T16:37:40.761Z,27.10
2018-02-27T16:40:08.386Z,32.63
2018-02-27T16:42:35.872Z,27.40
2018-02-27T16:45:03.500Z,29.10
2018-02-27T16:47:31.267Z,37.60
2018-02-27T16:49:59.867Z,30.00
2018-02-27T16:52:27.583Z,34.80
2018-02-27T16:54:55.503Z,31.00
2018-02-27T16:57:23.580Z,23.67
2018-02-27T16:59:51.106Z,28.90
2018-02-27T17:02:18.598Z,24.87
2018-02-27T17:04:46.458Z,25.63
2018-02-27T17:07:14.070Z,21.67
2018-02-27T17:09:41.884Z,23.17
2018-02-27T17:12:10.563Z,28.20
2018-02-27T17:14:39.263Z,26.40
2018-02-27T17:17:06.835Z,23.37
2018-02-27T17:19:34.747Z,25.60
2018-02-27T17:22:02.221Z,23.63
2018-02-27T17:24:30.004Z,26.27
2018-02-27T17:26:57.592Z,27.97
2018-02-27T17:29:25.464Z,26.77
2018-02-27T17:31:53.860Z,22.70
2018-02-27T17:34:21.686Z,26.33
2018-02-27T17:36:49.639Z,24.30
2018-02-27T17:39:17.244Z,21.13
2018-02-27T17:41:46.610Z,25.80
2018-02-27T17:44:14.470Z,25.90
2018-02-27T17:46:42.353Z,25.60
2018-02-27T17:49:09.920Z,24.10
2018-02-27T17:51:37.732Z,27.23
2018-02-27T17:54:05.176Z,24.20
2018-02-27T17:56:34.275Z,23.87
2018-02-27T17:59:02.898Z,23.80
2018-02-27T18:01:32.234Z,22.40
2018-02-27T18:04:01.742Z,20.37
2018-02-27T18:06:30.079Z,22.67
2018-02-27T18:08:59.457Z,23.20
2018-02-27T18:11:27.256Z,22.53
2018-02-27T18:13:56.793Z,22.27
2018-02-27T18:16:24.626Z,21.33
2018-02-27T18:18:52.345Z,18.13
2018-02-27T18:21:20.663Z,20.63
2018-02-27T18:23:48.125Z,18.80
2018-02-27T18:26:15.571Z,18.33
2018-02-27T18:28:43.062Z,21.70
2018-02-27T18:31:11.281Z,16.93
2018-02-27T18:33:41.371Z,19.40
2018-02-27T18:36:11.680Z,19.23
2018-02-27T18:38:40.144Z,20.47
2018-02-27T18:41:08.002Z,18.67
2018-02-27T18:43:35.508Z,19.03
2018-02-27T18:46:04.146Z,16.80
2018-02-27T18:48:32.524Z,19.57
2018-02-27T18:51:00.039Z,18.27
2018-02-27T18:53:28.434Z,16.23
2018-02-27T18:55:56.439Z,18.07
2018-02-27T18:58:23.999Z,19.00
2018-02-27T19:00:51.493Z,18.43
2018-02-27T19:03:19.318Z,17.40
2018-02-27T19:05:47.176Z,15.43
2018-02-27T19:08:14.671Z,16.40
2018-02-27T19:10:42.508Z,15.50
2018-02-27T19:13:10.064Z,15.40
2018-02-27T19:15:37.598Z,16.00
2018-02-27T19:18:05.121Z,14.37
2018-02-27T19:20:32.596Z,15.10
2018-02-27T19:23:01.109Z,16.50
2018-02-27T19:25:28.687Z,14.57
2018-02-27T19:27:56.552Z,15.70
2018-02-27T19:30:24.140Z,14.83
2018-02-27T19:32:52.801Z,14.60
2018-02-27T19:35:20.578Z,12.37
2018-02-27T19:37:48.192Z,12.50
2018-02-27T19:40:15.944Z,12.40
2018-02-27T19:42:43.656Z,12.50
2018-02-27T19:45:11.296Z,13.13
2018-02-27T19:47:38.868Z,11.53
2018-02-27T19:50:06.435Z,11.33
2018-02-27T19:52:34.297Z,11.73
2018-02-27T19:55:02.123Z,11.10
2018-02-27T19:57:29.824Z,10.57
2018-02-27T19:59:57.298Z,11.40
2018-02-27T20:02:24.889Z,9.70
2018-02-27T20:04:53.534Z,10.23
2018-02-27T20:07:21.403Z,9.73
2018-02-27T20:09:49.094Z,9.37
2018-02-27T20:12:16.606Z,9.40
2018-02-27T20:14:45.306Z,9.50
2018-02-27T20:17:12.936Z,9.63
2018-02-27T20:19:40.431Z,9.20
2018-02-27T20:22:08.019Z,9.30
2018-02-27T20:24:36.372Z,9.43
2018-02-27T20:27:04.041Z,8.67
2018-02-27T20:29:31.505Z,9.87
2018-02-27T20:32:00.056Z,9.63
2018-02-27T20:34:27.535Z,9.00
2018-02-27T20:36:55.076Z,9.40
2018-02-27T20:39:23.166Z,9.20
2018-02-27T20:41:50.737Z,8.67
2018-02-27T20:44:18.491Z,7.83
2018-02-27T20:46:46.515Z,7.63
2018-02-27T20:49:14.087Z,7.93
2018-02-27T20:51:41.760Z,6.57
2018-02-27T20:54:09.426Z,7.07
2018-02-27T20:56:37.094Z,7.00
2018-02-27T20:59:04.775Z,6.97
2018-02-27T21:01:32.418Z,7.30
2018-02-27T21:04:00.028Z,6.90
2018-02-27T21:06:31.237Z,6.93
2018-02-27T21:08:59.791Z,7.17
2018-02-27T21:11:28.490Z,6.70
2018-02-27T21:13:56.210Z,7.10
2018-02-27T21:16:23.738Z,6.70
2018-02-27T21:18:51.571Z,5.93
2018-02-27T21:21:19.403Z,6.60
2018-02-27T21:23:47.994Z,5.90
2018-02-27T21:26:15.667Z,6.00
2018-02-27T21:28:43.610Z,6.67
2018-02-27T21:31:11.123Z,6.40
2018-02-27T21:33:38.680Z,6.40
2018-02-27T21:36:06.190Z,5.23
2018-02-27T21:38:34.018Z,5.43
2018-02-27T21:41:01.489Z,4.67
2018-02-27T21:43:29.009Z,5.47
2018-02-27T21:45:56.538Z,5.63
2018-02-27T21:48:24.522Z,5.87
2018-02-27T21:50:52.023Z,5.63
2018-02-27T21:53:19.877Z,5.37
2018-02-27T21:55:47.745Z,5.60
2018-02-27T21:58:15.620Z,5.93
2018-02-27T22:00:43.561Z,5.17
2018-02-27T22:03:11.061Z,5.67
2018-02-27T22:05:38.573Z,5.73
2018-02-27T22:08:07.145Z,5.50
2018-02-27T22:10:34.643Z,5.70
2018-02-27T22:13:02.238Z,6.00
2018-02-27T22:15:30.167Z,5.40
2018-02-27T22:17:57.702Z,5.40
2018-02-27T22:20:26.207Z,5.50
2018-02-27T22:22:53.734Z,6.50
2018-02-27T22:25:21.299Z,4.93
2018-02-27T22:27:50.450Z,5.47
2018-02-27T22:30:18.686Z,5.40
2018-02-27T22:32:46.184Z,5.07
2018-02-27T22:35:13.741Z,5.87
2018-02-27T22:37:41.225Z,5.37
2018-02-27T22:40:09.678Z,5.83
2018-02-27T22:42:38.337Z,5.20
2018-02-27T22:45:06.106Z,6.00
2018-02-27T22:47:33.727Z,5.43
2018-02-27T22:50:02.244Z,4.97
2018-02-27T22:52:29.736Z,4.80
2018-02-27T22:54:57.265Z,5.10
2018-02-27T22:57:25.035Z,4.60
2018-02-27T22:59:52.624Z,4.83
2018-02-27T23:02:20.454Z,4.87
2018-02-27T23:04:48.115Z,5.73
2018-02-27T23:07:15.693Z,4.30
2018-02-27T23:09:43.151Z,5.13
2018-02-27T23:12:10.712Z,5.40
2018-02-27T23:14:38.153Z,5.63
2018-02-27T23:17:05.655Z,4.47
2018-02-27T23:19:33.185Z,4.47
2018-02-27T23:22:01.030Z,5.37
2018-02-27T23:24:28.768Z,4.87
2018-02-27T23:26:56.278Z,3.80
2018-02-27T23:29:25.204Z,4.53
2018-02-27T23:31:53.789Z,4.77
2018-02-27T23:34:21.977Z,4.23
2018-02-27T23:36:49.425Z,4.93
2018-02-27T23:39:16.901Z,5.20
2018-02-27T23:41:44.341Z,4.93
2018-02-27T23:44:12.113Z,4.90
2018-02-27T23:46:39.615Z,4.40
2018-02-27T23:49:08.313Z,4.07
2018-02-27T23:51:35.873Z,4.40
2018-02-27T23:54:03.436Z,4.80
2018-02-27T23:56:31.158Z,4.20
2018-02-27T23:58:58.728Z,5.50
